Date,TemperatureHighF,TemperatureAvgF,TemperatureLowF,DewpointHighF,DewpointAvgF,DewpointLowF,HumidityHigh,HumidityAvg,HumidityLow,PressureMaxIn,PressureMinIn,WindSpeedMaxMPH,WindSpeedAvgMPH,GustSpeedMaxMPH,PrecipitationSumIn
2013-1-1,34.2,18.5,11.0,30.4,9.7,2.6,90,68,57,29.97,29.65,14,7,19,0.00
2013-1-2,16.2,7.8,-10.9,11.9,1.4,-15.3,90,75,60,30.28,29.87,11,4,18,0.00
2013-1-3,11.7,1.3,-11.9,6.8,-4.0,-16.2,85,78,65,30.29,29.90,5,1,6,0.00
2013-1-4,35.1,28.4,6.8,28.6,22.8,3.5,89,79,69,29.90,29.72,15,7,20,0.01
2013-1-5,34.1,23.5,9.2,28.8,16.6,6.6,91,75,59,30.25,29.76,15,5,22,0.00
2013-1-6,34.1,24.7,14.1,30.6,21.6,10.8,94,88,80,30.18,29.86,7,2,11,0.04
2013-1-7,20.3,14.2,5.1,17.5,10.7,1.9,91,86,74,30.40,30.03,7,2,11,0.01
2013-1-8,38.5,25.6,5.0,29.6,20.2,1.6,95,80,60,30.36,30.17,13,3,15,0.04
2013-1-9,46.1,31.0,16.7,35.4,25.1,14.8,94,80,60,30.36,29.85,17,5,22,0.01
2013-1-10,40.9,36.0,26.7,33.7,26.9,22.7,89,70,59,30.57,30.03,17,6,22,0.01
2013-1-11,38.7,31.2,21.2,34.7,26.5,19.0,92,83,62,30.54,30.04,11,3,14,0.01
2013-1-12,47.4,40.6,37.2,41.2,37.4,34.2,96,89,79,30.08,29.98,6,2,8,0.00
2013-1-13,52.9,42.1,33.9,45.5,39.8,32.8,98,92,76,30.07,29.79,6,1,7,0.00
2013-1-14,55.7,42.2,35.1,51.3,33.8,24.5,95,73,55,30.30,29.72,16,6,22,0.00
2013-1-15,35.8,30.6,24.6,25.6,21.7,17.6,86,70,49,30.35,30.24,7,2,12,0.00
2013-1-16,34.0,29.1,23.9,28.7,25.1,20.7,96,85,66,30.23,29.75,7,1,7,0.01
2013-1-17,36.2,22.1,7.0,30.4,11.6,-8.5,87,64,40,30.22,29.74,14,6,20,0.01
2013-1-18,20.6,10.9,-1.8,11.4,-2.2,-8.5,82,57,36,30.37,30.17,15,4,20,0.00
2013-1-19,37.7,28.2,18.0,30.5,22.5,13.4,92,79,66,30.21,29.67,8,4,11,0.01
2013-1-20,44.2,30.7,14.6,35.3,22.0,4.8,84,70,54,29.97,29.32,25,11,36,0.04
2013-1-21,14.5,9.4,2.8,7.7,3.6,-2.0,86,77,65,30.08,29.88,6,2,7,0.00
2013-1-22,13.4,5.0,-3.1,4.0,-2.5,-10.9,88,72,46,30.13,29.85,13,3,15,0.01
2013-1-23,4.3,-3.4,-8.8,-7.3,-13.5,-18.1,76,62,42,30.25,30.12,7,3,10,0.00
2013-1-24,12.9,0.4,-13.3,-6.6,-12.1,-18.3,81,57,33,30.40,30.19,16,6,25,0.00
2013-1-25,15.1,7.1,-0.6,5.8,-2.4,-8.8,85,65,43,30.42,30.14,10,3,16,0.00
2013-1-26,16.7,9.3,-3.4,7.4,1.6,-7.2,87,72,47,30.33,30.13,10,3,11,0.00
2013-1-27,19.3,11.5,4.2,7.2,1.4,-3.5,82,65,37,30.53,30.33,7,3,12,0.00
2013-1-28,23.3,16.3,4.4,21.6,12.8,0.1,94,86,60,30.49,29.99,6,1,7,0.00
2013-1-29,34.0,26.0,21.2,33.0,24.5,20.0,96,94,92,30.18,29.90,2,0,3,0.02
2013-1-30,57.2,45.9,33.9,51.1,43.1,32.6,97,90,77,29.89,29.19,13,4,18,0.08
2013-1-31,55.1,37.8,22.3,51.3,27.4,8.6,97,67,46,29.51,28.81,29,14,40,0.15
2013-2-1,22.4,16.4,13.0,15.8,5.9,1.4,82,63,46,30.14,29.51,13,6,17,0.00
2013-2-2,22.6,15.1,9.2,16.6,9.6,1.3,92,79,63,30.20,30.02,8,2,8,0.00
2013-2-3,24.3,16.6,10.0,17.4,13.1,7.7,92,86,70,30.05,29.76,4,1,7,0.01
2013-2-4,23.5,16.9,7.4,15.4,6.3,-3.4,92,65,38,29.95,29.74,18,5,21,0.00
2013-2-5,19.7,10.8,-0.7,8.9,1.3,-6.0,79,66,47,30.06,29.90,6,2,9,0.00
2013-2-6,28.7,19.5,10.9,23.3,7.1,-6.1,86,60,32,30.41,29.86,16,4,19,0.00
2013-2-7,11.6,6.8,2.1,-1.1,-4.2,-8.2,65,60,52,30.63,30.40,7,3,10,0.00
2013-2-8,21.6,13.5,6.9,19.9,9.9,-1.7,93,85,65,30.46,30.03,13,3,16,0.00
2013-2-9,20.3,13.8,6.6,12.3,2.8,-3.3,89,63,36,30.39,30.03,14,8,22,0.00
2013-2-10,27.1,12.2,-4.5,12.2,3.0,-8.4,85,68,37,30.50,30.24,4,2,5,0.07
2013-2-11,40.1,29.7,9.2,36.7,23.4,4.3,94,77,56,30.23,29.59,13,4,15,0.05
2013-2-12,38.6,36.3,33.3,31.9,29.3,24.9,83,75,70,29.82,29.57,14,7,21,0.00
2013-2-13,37.6,33.6,30.1,28.0,26.2,23.6,89,75,58,29.83,29.74,9,3,13,0.00
2013-2-14,36.9,31.5,27.2,27.4,23.1,20.9,89,72,55,29.93,29.76,6,2,9,0.00
2013-2-15,42.9,35.3,28.0,34.1,25.7,17.1,94,69,51,29.97,29.80,18,7,26,0.00
2013-2-16,31.0,23.7,17.4,17.4,12.8,4.8,84,63,51,30.02,29.94,9,4,13,0.00
2013-2-17,19.2,13.9,9.9,6.5,3.6,1.0,74,63,48,29.94,29.73,19,9,26,0.00
2013-2-18,26.5,16.2,6.8,5.5,-1.6,-7.4,73,48,24,30.17,29.91,14,7,24,0.00
2013-2-19,43.8,28.7,12.5,32.8,19.0,5.4,96,69,43,30.14,29.62,16,4,19,0.00
2013-2-20,33.1,27.7,18.0,26.7,18.2,9.5,77,67,53,29.80,29.60,16,9,21,0.01
2013-2-21,23.3,16.7,9.3,19.1,9.0,0.2,90,71,63,30.40,29.80,12,6,16,0.00
2013-2-22,32.9,25.3,13.2,24.8,20.3,10.8,91,82,71,30.45,30.21,8,2,8,0.00
2013-2-23,36.0,34.4,28.0,32.7,29.6,24.2,93,83,69,30.21,29.86,12,7,16,0.01
2013-2-24,35.2,33.3,31.3,33.6,32.1,30.2,97,95,90,29.96,29.80,4,1,7,0.04
2013-2-25,35.1,33.4,31.6,33.2,31.4,29.7,97,92,86,30.24,29.96,3,1,4,0.01
2013-2-26,41.4,35.3,27.7,34.1,31.1,26.7,97,85,71,30.32,30.08,7,2,10,0.01
2013-2-27,37.0,33.9,32.7,33.3,31.7,28.6,98,92,74,30.08,29.64,11,2,16,0.21
2013-2-28,35.5,33.0,32.4,35.0,32.5,31.9,98,98,98,29.64,29.56,0,0,0,0.15
2013-3-8,39.1,34.3,27.0,26.8,24.8,22.0,82,69,60,30.36,30.28,11,5,16,0.00
2013-3-9,45.6,33.3,21.3,28.5,24.5,18.4,90,72,48,30.38,30.32,6,2,8,0.00
2013-3-10,52.4,40.7,25.5,29.1,25.8,21.8,87,59,38,30.33,30.06,11,4,15,0.00
2013-3-11,49.6,45.7,40.5,37.5,32.8,28.4,71,61,50,30.11,29.86,17,5,21,0.00
2013-3-12,53.7,46.2,39.4,49.6,42.4,32.8,97,87,66,29.89,29.72,15,8,20,0.55
2013-3-13,43.8,38.6,32.5,33.2,29.4,23.7,86,70,55,29.82,29.74,14,5,16,0.00
2013-3-14,33.3,24.3,18.0,24.3,12.8,5.3,73,61,50,29.94,29.71,15,9,22,0.00
2013-3-15,34.8,25.3,16.4,30.1,16.2,5.6,94,69,44,29.94,29.57,11,4,14,0.00
2013-3-16,26.6,22.5,18.2,21.6,15.0,9.7,83,73,59,29.95,29.75,9,4,15,0.00
2013-3-17,26.5,20.4,14.7,12.7,7.1,-0.8,78,57,32,30.37,29.93,11,5,18,0.00
2013-3-18,31.8,22.4,8.9,22.4,8.0,0.8,79,55,32,30.45,30.10,11,2,11,0.00
2013-3-19,32.9,30.7,27.9,31.4,28.8,22.4,97,92,75,30.10,29.72,11,5,15,0.08
2013-3-20,35.9,30.5,23.9,29.1,21.8,17.7,89,70,60,29.72,29.64,14,7,22,0.06
2013-3-21,35.9,30.2,24.8,21.6,17.4,13.7,72,60,42,29.71,29.63,13,6,17,0.00
2013-3-22,34.1,27.5,17.3,26.0,19.8,13.2,86,73,59,29.76,29.65,10,3,14,0.00
2013-3-23,39.8,33.8,27.7,25.6,23.4,19.9,83,66,50,29.83,29.69,17,9,27,0.00
2013-3-24,40.5,35.0,26.7,26.4,24.9,23.5,88,67,52,29.89,29.80,11,5,15,0.00
2013-3-25,45.1,34.5,23.9,29.8,25.8,20.9,90,72,51,29.83,29.60,11,4,20,0.00
2013-3-26,47.0,38.8,33.1,27.9,25.2,21.9,76,59,39,29.80,29.66,10,6,14,0.00
2013-3-27,43.6,39.6,37.1,28.8,26.2,23.9,67,59,51,29.83,29.77,8,4,12,0.00
2013-4-4,56.0,48.6,34.3,21.4,15.9,12.0,59,29,18,30.07,29.87,13,6,24,0.00
2013-4-5,47.5,38.8,31.2,33.3,22.6,13.8,76,53,32,30.02,29.79,14,6,20,0.00
2013-4-6,39.8,31.0,23.8,20.2,11.1,2.5,74,45,22,30.30,30.01,11,5,16,0.00
2013-4-7,59.1,46.7,30.7,43.7,27.7,18.3,69,49,30,30.25,29.73,20,8,29,0.00
2013-4-8,50.1,44.6,40.6,36.4,33.7,32.0,82,66,55,30.15,29.89,11,4,17,0.00
2013-4-9,55.0,46.9,39.9,48.4,40.4,36.4,97,79,59,30.02,29.75,14,5,20,0.45
2013-4-10,47.1,44.9,40.8,44.1,41.5,39.2,97,88,75,30.02,29.92,7,1,7,0.14
2013-4-11,40.8,35.5,32.6,39.3,22.1,18.4,95,59,50,30.22,29.94,10,5,15,0.00
2013-4-12,37.2,33.7,30.7,34.3,29.4,19.7,96,85,56,30.21,29.76,13,5,18,0.77
2013-4-13,49.4,41.8,35.8,39.8,36.0,33.2,94,81,64,29.89,29.75,12,4,14,0.20
2013-4-14,47.4,41.9,32.0,35.4,32.4,27.7,87,69,49,30.23,29.87,12,5,16,0.00
2013-4-15,58.3,44.8,27.8,36.2,31.7,25.2,92,63,40,30.34,30.16,13,5,15,0.00
2013-4-16,62.8,54.4,49.1,54.7,43.5,35.8,90,67,53,30.16,29.87,18,8,25,0.03
2013-4-17,57.3,47.1,35.5,40.6,32.5,27.2,83,59,34,30.35,30.09,10,4,16,0.00
2013-4-18,64.8,49.6,34.8,44.7,37.1,29.9,85,64,42,30.35,29.82,21,9,27,0.01
2013-4-19,72.2,61.5,45.8,60.1,52.1,35.1,91,72,59,29.83,29.39,26,12,42,0.16
2013-4-20,50.0,43.7,33.9,35.6,27.4,19.1,78,53,38,30.28,29.65,21,12,28,0.00
2013-4-21,45.7,36.2,28.5,23.5,19.0,14.0,77,51,29,30.70,30.28,10,4,16,0.00
2013-4-22,56.6,43.2,23.9,25.4,20.6,13.9,81,46,19,30.71,30.50,15,6,21,0.00
2013-4-23,57.6,46.2,31.6,39.3,30.5,20.2,79,56,35,30.51,30.09,16,8,24,0.00
2013-4-24,74.4,55.8,31.6,54.6,41.9,29.5,95,64,34,30.09,29.58,15,6,22,0.05
2013-4-25,57.2,46.7,36.0,51.8,32.2,24.8,83,59,30,30.29,29.60,21,8,31,0.01
2013-4-26,53.3,42.9,32.0,40.9,34.8,27.9,90,74,53,30.45,30.28,7,2,12,0.00
2013-4-27,58.5,45.1,30.8,36.9,31.8,17.6,94,64,21,30.45,30.29,7,2,9,0.00
2013-4-28,70.9,53.2,32.5,39.1,34.3,29.3,89,54,24,30.31,30.08,9,3,14,0.00
2013-4-29,65.4,56.1,46.0,46.6,42.2,37.6,80,61,41,30.15,30.09,15,6,22,0.00
2013-4-30,72.4,59.4,49.9,50.6,47.8,43.9,94,67,44,30.25,30.15,8,3,11,0.01
2013-5-1,79.0,62.5,44.8,50.1,45.0,38.3,93,59,24,30.41,30.24,7,2,11,0.00
2013-5-2,79.3,65.3,46.0,49.8,43.4,34.9,80,49,24,30.41,30.28,7,3,11,0.00
2013-5-3,71.8,61.3,47.6,43.2,37.5,29.9,76,43,25,30.45,30.29,13,7,16,0.00
2013-5-4,78.8,59.9,41.3,47.1,40.7,34.5,85,55,26,30.32,30.16,6,2,10,0.00
2013-5-5,78.2,62.8,43.3,45.6,41.2,28.0,87,51,16,30.20,30.07,8,3,11,0.00
2013-5-6,79.0,64.2,45.4,46.6,36.6,18.7,76,42,12,30.16,30.00,12,4,16,0.00
2013-5-7,81.9,66.7,47.6,50.8,41.5,31.3,73,42,24,30.09,29.99,11,4,20,0.00
2013-5-8,81.2,65.0,47.8,60.5,52.0,42.8,94,66,34,30.11,29.98,16,5,18,0.08
2013-5-9,77.8,64.7,55.7,60.0,55.9,45.9,98,76,33,29.98,29.81,11,4,14,0.13
2013-5-10,68.3,61.9,57.1,58.4,56.3,54.2,94,82,62,29.97,29.74,5,2,8,0.01
2013-5-11,70.8,61.9,51.1,63.1,55.6,45.6,96,81,59,29.74,29.57,13,5,17,0.14
2013-5-12,58.8,51.8,43.3,46.5,36.9,24.8,87,60,29,29.73,29.62,16,8,21,0.00
2013-5-13,53.1,44.4,38.1,38.9,31.9,27.6,80,62,40,30.03,29.73,16,8,26,0.00
2013-5-14,56.1,45.7,34.2,36.3,31.5,27.2,91,61,34,30.11,29.98,7,2,10,0.00
2013-5-15,64.1,48.8,30.8,49.9,38.5,27.6,92,70,35,30.02,29.53,15,6,23,0.06
2013-5-16,74.8,60.3,49.2,50.0,41.7,33.5,92,54,24,29.90,29.57,18,8,31,0.00
2013-5-17,64.0,55.1,45.1,45.1,41.9,38.6,88,62,45,30.20,29.90,9,4,14,0.00
2013-5-18,70.6,56.6,39.2,46.1,39.3,32.8,92,58,26,30.29,30.19,8,3,13,0.00
2013-5-19,70.1,56.0,42.7,55.5,48.6,37.8,94,77,48,30.25,30.06,13,4,18,0.13
2013-5-20,70.1,61.8,55.8,62.9,58.6,54.3,96,90,77,30.05,29.95,6,2,8,0.02
2013-5-21,66.3,60.4,56.8,62.1,57.6,54.6,99,91,72,29.99,29.76,15,3,21,0.65
2013-5-22,78.4,65.2,56.5,70.2,62.7,55.7,99,92,70,29.82,29.66,9,2,12,1.38
2013-5-23,78.5,68.4,62.3,68.8,63.7,58.1,99,85,62,29.72,29.63,13,4,19,0.28
2013-5-24,62.3,48.7,45.1,61.1,46.7,42.4,97,93,86,30.06,29.70,11,6,14,0.98
2013-5-25,45.9,43.6,41.8,44.4,41.7,39.6,95,93,90,30.06,29.96,17,10,22,0.83
2013-5-26,53.5,45.1,41.7,45.6,42.0,39.5,95,89,68,30.08,29.90,12,6,19,0.22
2013-5-27,68.9,55.3,38.6,42.6,37.2,31.6,95,56,26,30.16,30.04,11,4,15,0.00
2013-5-28,73.1,59.5,40.4,49.4,42.9,36.8,88,57,33,30.20,30.05,10,4,15,0.00
2013-5-29,72.9,64.4,56.4,66.0,59.5,47.0,97,85,57,30.05,29.86,11,5,14,0.34
2013-5-30,89.4,75.9,60.7,66.0,63.3,58.7,94,68,39,30.03,29.92,10,4,15,0.00
2013-5-31,95.4,81.9,68.4,68.3,62.6,57.6,83,55,31,30.02,29.83,11,5,16,0.00
2013-6-1,92.2,77.8,65.5,70.6,64.1,-99.9,93,66,37,29.89,29.73,13,4,19,0.42
2013-6-2,88.0,74.3,68.1,71.2,65.0,58.6,96,75,47,29.77,29.59,13,5,17,0.13
2013-6-3,68.6,63.9,54.3,59.4,49.9,42.1,78,62,43,29.84,29.70,15,8,21,0.00
2013-6-4,66.9,57.7,50.4,48.5,43.7,41.1,83,61,44,30.10,29.84,12,6,18,0.00
2013-6-5,66.3,58.1,45.6,51.0,45.7,40.2,90,65,47,30.20,30.10,7,2,11,0.00
2013-6-6,59.2,55.2,52.1,54.5,50.6,47.2,96,85,67,30.16,30.05,5,2,7,0.23
2013-6-7,57.4,54.3,52.4,55.4,52.9,50.3,98,95,86,30.06,29.86,10,4,12,1.14
2013-6-8,63.0,58.1,53.4,58.9,55.9,52.8,99,92,80,30.00,29.78,4,2,7,0.02
2013-6-9,78.2,67.5,57.3,57.6,54.8,50.1,91,67,39,30.17,30.00,11,4,18,0.00
2013-6-10,75.4,63.6,51.9,59.8,55.7,50.2,96,78,47,30.18,29.92,9,3,12,0.20
2013-6-11,60.0,57.3,54.7,58.9,56.7,54.1,98,98,96,29.92,29.57,8,3,11,1.82
2013-6-12,68.1,60.6,54.1,58.5,54.6,52.1,98,82,60,29.84,29.63,14,6,20,0.13
2013-6-13,68.3,60.4,50.7,60.0,55.2,49.9,98,84,62,29.81,29.67,5,2,9,0.00
2013-6-14,76.8,65.8,52.3,57.0,52.5,44.2,96,65,44,29.84,29.67,10,4,18,0.00
2013-6-15,76.9,66.2,52.0,49.1,44.5,40.0,78,48,27,29.94,29.85,12,4,17,0.00
2013-6-16,69.1,63.0,58.1,60.7,54.1,44.1,96,75,47,29.87,29.66,13,3,19,0.34
2013-6-17,75.4,65.2,56.1,62.5,56.5,50.0,98,75,49,29.93,29.72,12,4,19,0.01
2013-6-18,69.0,59.3,47.0,54.3,49.4,43.3,96,72,46,29.99,29.90,6,2,12,0.00
2013-6-19,67.7,59.1,47.7,49.5,42.7,38.9,87,57,36,30.16,29.98,9,4,15,0.00
2013-6-20,74.3,61.1,42.5,55.2,48.2,41.0,95,66,41,30.24,30.16,8,3,13,0.00
2013-6-21,81.4,68.7,52.8,61.1,53.6,48.7,88,62,37,30.22,30.16,7,2,10,0.00
2013-6-22,75.7,66.2,60.8,65.2,61.4,57.1,96,85,61,30.17,30.06,5,1,8,0.06
2013-6-23,79.9,72.1,62.8,75.4,69.5,61.9,98,92,78,30.06,29.91,6,1,8,0.27
2013-6-24,91.3,78.7,68.5,72.3,68.8,63.7,99,74,50,29.94,29.82,10,4,16,0.29
2013-6-25,88.8,74.1,67.2,73.6,68.7,65.3,97,84,58,29.86,29.70,10,3,16,0.35
2013-6-26,79.1,70.9,65.9,71.6,68.2,65.0,98,92,76,29.76,29.70,7,2,9,0.73
2013-6-27,82.2,73.0,65.0,72.1,68.1,63.8,97,86,60,29.76,29.69,7,2,11,0.46
2013-6-28,73.1,63.9,56.6,67.4,60.1,55.9,99,88,70,29.69,29.36,14,6,24,1.17
2013-6-29,75.3,65.3,55.7,68.8,62.7,54.9,98,92,69,29.65,29.48,6,1,8,0.15
2013-6-30,80.0,69.4,58.4,66.7,63.5,57.8,99,83,63,29.92,29.65,6,2,9,0.01
2013-7-1,72.2,67.4,60.4,64.8,61.9,58.5,95,83,70,30.09,29.91,7,3,8,0.20
2013-7-2,71.4,64.3,58.0,67.2,61.9,56.9,98,92,81,30.11,30.07,4,1,6,0.30
2013-7-3,80.0,72.5,66.6,74.6,70.2,66.0,99,93,80,30.13,30.07,5,1,7,0.14
2013-7-4,86.3,75.2,65.9,75.7,71.7,65.3,99,89,70,30.14,30.03,10,2,11,1.60
2013-7-5,90.3,78.9,69.4,75.1,70.6,65.7,92,77,51,30.10,29.99,9,3,12,0.00
2013-7-6,88.3,79.3,73.4,70.5,66.5,61.0,88,67,41,30.04,29.95,9,4,13,0.00
2013-7-7,82.9,74.6,69.8,72.9,67.7,60.7,97,80,64,29.99,29.91,6,2,10,0.12
2013-7-8,79.6,71.6,66.6,70.0,67.8,65.3,98,89,70,30.02,29.90,7,2,9,0.03
2013-7-9,84.9,74.7,63.8,74.1,69.0,62.3,96,84,62,30.05,29.92,7,1,8,0.01
2013-7-10,82.2,76.0,67.6,74.7,71.5,66.5,98,87,74,29.92,29.65,12,4,14,0.00
2013-7-11,81.2,73.1,63.4,71.7,62.7,55.7,96,72,45,30.01,29.69,10,4,15,0.18
2013-7-12,76.4,67.5,58.1,60.2,56.6,53.9,91,70,47,30.19,30.01,7,2,9,0.00
2013-7-13,82.2,71.4,56.1,68.6,62.1,54.0,94,74,50,30.26,30.19,9,3,15,0.00
2013-7-14,85.9,78.0,70.6,73.9,70.0,67.2,93,78,60,30.28,30.18,5,2,7,0.00
2013-7-15,93.2,82.3,71.4,70.6,66.6,58.0,93,63,32,30.19,30.11,10,4,13,0.00
2013-7-16,86.7,79.7,69.1,72.8,69.2,65.3,91,71,58,30.20,30.13,7,2,9,0.00
2013-7-17,95.9,83.4,72.5,73.9,70.2,67.6,89,66,44,30.15,29.89,10,5,13,0.00
2013-7-18,88.5,79.7,70.6,76.0,71.5,67.5,93,77,63,30.00,29.87,7,3,11,0.01
2013-7-19,95.3,81.0,70.4,75.7,70.2,65.7,96,73,43,29.88,29.58,24,7,28,0.05
2013-7-20,84.5,77.1,66.9,71.6,64.4,54.6,89,66,38,29.81,29.60,13,6,16,0.03
2013-7-21,72.2,65.2,56.6,63.5,54.2,50.3,92,69,54,30.02,29.81,7,3,11,0.01
2013-7-22,79.2,66.3,51.2,65.4,56.7,49.1,93,74,48,30.02,29.80,5,2,6,0.00
2013-7-23,79.4,71.1,66.5,69.9,66.6,64.4,97,86,63,29.80,29.51,5,1,7,0.16
2013-7-24,73.1,64.2,50.9,66.9,55.6,48.3,92,74,55,30.05,29.51,13,6,17,0.19
2013-7-25,58.3,49.7,45.9,49.3,46.6,44.3,95,89,63,30.13,30.05,5,1,8,0.00
2013-8-14,68.8,63.8,56.4,57.8,53.3,49.4,82,69,56,29.94,29.70,12,6,19,0.00
2013-8-15,76.4,65.1,53.1,54.0,50.3,47.9,86,60,38,30.05,29.94,11,6,14,0.00
2013-8-16,78.0,66.1,54.6,58.8,54.3,50.4,87,67,45,30.10,30.04,8,3,11,0.00
2013-8-17,73.3,64.0,51.7,58.1,54.3,50.0,95,73,50,30.30,30.22,6,2,10,0.00
2013-8-18,79.0,65.4,51.7,63.1,57.0,50.3,97,77,49,30.26,30.05,8,3,12,0.00
2013-8-19,84.7,73.0,60.6,61.8,58.2,55.7,84,61,42,30.05,29.94,11,5,15,0.00
2013-8-20,86.8,76.3,67.5,63.7,59.7,55.7,71,57,41,30.05,29.96,8,5,11,0.00
2013-8-21,75.1,71.6,68.1,61.2,60.4,59.6,77,68,59,30.07,30.05,7,3,9,0.00